Time;durP1;ratioP1;P1;durP2;ratioP2;P2;SDS_P1;SDS_P2;PMS_P1;PMS_P2;Temp;Humidity;BMP_temperature;BMP_pressure;BME280_temperature;BME280_humidity;BME280_pressure;Samples;Min_cycle;Max_cycle;Signal;HPM_P1;HPM_P2
2023/12/27 00:00:29;;;;;;;;;;;4.30;91.10;;;;;;5115089;28;19920;-91
2023/12/27 00:02:54;;;;;;;;;;;4.30;91.00;;;;;;5115270;28;19905;-93
2023/12/27 00:05:20;;;;;;;;;;;4.20;91.20;;;;;;5115870;28;19911;-91
2023/12/27 00:07:46;;;;;;;;;;;4.20;91.10;;;;;;5115512;28;19953;-91
2023/12/27 00:10:11;;;;;;;;;;;4.20;91.30;;;;;;5115389;28;19939;-91
2023/12/27 00:12:36;;;;;;;;;;;4.10;91.30;;;;;;5115209;28;20275;-92
2023/12/27 00:15:02;;;;;;;;;;;4.10;91.50;;;;;;5115590;28;19910;-92
2023/12/27 00:17:28;;;;;;;16.17;10.83;;;4.10;91.40;;;;;;5115535;28;20375;-91
2023/12/27 00:19:53;;;;;;;15.90;11.10;;;4.00;91.60;;;;;;5114516;28;20202;-92
2023/12/27 00:22:19;;;;;;;14.20;10.40;;;4.10;91.50;;;;;;5114918;28;20247;-91
2023/12/27 00:24:44;;;;;;;19.87;11.87;;;4.10;91.50;;;;;;5114768;28;20251;-92
2023/12/27 00:27:10;;;;;;;16.37;11.70;;;4.20;91.50;;;;;;5114490;28;20248;-91
2023/12/27 00:29:37;;;;;;;27.70;11.73;;;4.10;91.40;;;;;;5114279;28;20224;-92
2023/12/27 00:32:03;;;;;;;18.47;6.93;;;4.10;91.40;;;;;;5114348;28;20718;-91
2023/12/27 00:34:28;;;;;;;14.63;5.63;;;4.00;91.50;;;;;;5114559;28;20179;-91
2023/12/27 00:36:54;;;;;;;18.97;6.37;;;4.10;91.40;;;;;;5114684;28;20221;-91
2023/12/27 00:39:23;;;;;;;12.83;11.50;;;4.10;91.40;;;;;;5114481;28;20191;-89
2023/12/27 00:41:49;;;;;;;21.13;12.00;;;4.00;91.30;;;;;;5114631;28;20565;-89
2023/12/27 00:44:15;;;;;;;18.27;6.23;;;4.00;91.40;;;;;;5115460;28;20249;-91
2023/12/27 00:46:41;;;;;;;24.13;7.43;;;4.00;91.30;;;;;;5114492;28;20233;-90
2023/12/27 00:49:07;;;;;;;12.90;5.93;;;4.00;91.30;;;;;;5113989;28;20194;-92
2023/12/27 00:51:32;;;;;;;21.80;12.70;;;4.10;91.10;;;;;;5114276;28;20642;-89
2023/12/27 00:53:58;;;;;;;16.13;12.17;;;4.10;91.10;;;;;;5114948;28;20186;-92
2023/12/27 00:56:24;;;;;;;23.40;7.80;;;4.00;91.10;;;;;;5113805;28;20253;-91
2023/12/27 00:59:01;;;;;;;23.70;6.50;;;4.00;91.20;;;;;;5114013;28;20180;-92
2023/12/27 01:01:34;;;;;;;12.63;6.17;;;4.00;91.20;;;;;;5111348;28;20223;-91
2023/12/27 01:04:41;;;;;;;11.03;5.57;;;4.10;91.10;;;;;;5114783;28;20329;-91
2023/12/27 01:07:07;;;;;;;24.23;6.33;;;4.10;91.00;;;;;;5092480;28;20597;-92
2023/12/27 01:09:32;;;;;;;16.17;5.77;;;4.00;91.10;;;;;;5130202;22;20237;-92
2023/12/27 01:12:18;;;;;;;24.17;5.97;;;3.90;91.30;;;;;;5011179;28;20675;-92
2023/12/27 01:14:44;;;;;;;9.13;4.60;;;3.80;91.40;;;;;;5011380;28;20210;-92
2023/12/27 01:17:09;;;;;;;18.07;6.20;;;3.80;91.60;;;;;;5011136;28;20633;-92
2023/12/27 01:19:35;;;;;;;19.03;6.67;;;3.80;91.60;;;;;;5010828;28;20204;-92
2023/12/27 01:22:01;;;;;;;15.63;6.03;;;3.80;91.60;;;;;;5011468;28;20738;-92
2023/12/27 01:24:26;;;;;;;20.03;5.87;;;3.70;91.60;;;;;;5011143;28;20170;-92
2023/12/27 01:26:52;;;;;;;;;;;3.70;91.80;;;;;;5011676;28;20061;-92
2023/12/27 01:29:17;;;;;;;;;;;3.80;91.80;;;;;;5011061;28;19912;-91
2023/12/27 01:31:43;;;;;;;;;;;3.70;91.90;;;;;;5011538;28;19912;-92
2023/12/27 01:34:09;;;;;;;;;;;3.80;91.90;;;;;;5011417;28;19905;-92
2023/12/27 01:36:34;;;;;;;;;;;3.70;91.80;;;;;;5011469;28;19958;-92
2023/12/27 01:39:00;;;;;;;;;;;3.70;91.90;;;;;;5011271;28;19906;-92
2023/12/27 01:41:25;;;;;;;;;;;3.60;91.90;;;;;;5011194;28;20379;-91
2023/12/27 01:43:50;;;;;;;;;;;3.60;92.10;;;;;;5011324;28;19905;-92
2023/12/27 01:46:16;;;;;;;;;;;3.60;92.10;;;;;;5011228;28;20016;-92
2023/12/27 01:48:43;;;;;;;23.67;10.80;;;3.60;92.10;;;;;;5010222;28;19959;-91
2023/12/27 01:51:12;;;;;;;24.43;11.00;;;3.50;92.10;;;;;;5010400;28;20199;-92
2023/12/27 01:53:38;;;;;;;21.63;9.53;;;3.50;92.20;;;;;;5010148;28;20186;-92
2023/12/27 01:56:04;;;;;;;19.70;9.70;;;3.50;92.30;;;;;;5009971;28;20552;-92
2023/12/27 01:58:30;;;;;;;25.13;11.33;;;3.50;92.30;;;;;;5009835;28;20550;-92
2023/12/27 02:00:56;;;;;;;26.17;11.33;;;3.50;92.20;;;;;;5009759;28;20201;-91
2023/12/27 02:03:23;;;;;;;16.13;9.73;;;3.50;92.20;;;;;;5010801;28;20184;-92
2023/12/27 02:05:49;;;;;;;;;;;3.50;92.30;;;;;;5009968;28;20603;-92
2023/12/27 02:08:15;;;;;;;;;;;3.50;92.30;;;;;;5010578;28;19959;-92
2023/12/27 02:10:42;;;;;;;24.70;9.70;;;3.40;92.30;;;;;;5010269;28;19945;-92
2023/12/27 02:13:08;;;;;;;14.50;5.03;;;3.40;92.50;;;;;;5011649;28;20172;-92
2023/12/27 02:15:35;;;;;;;24.03;5.80;;;3.40;92.40;;;;;;5011584;28;20202;-91
2023/12/27 02:18:03;;;;;;;18.33;9.80;;;3.40;92.40;;;;;;5010879;28;20189;-92
2023/12/27 02:20:29;;;;;;;22.70;11.73;;;3.40;92.40;;;;;;5009940;28;20232;-92
2023/12/27 02:22:57;;;;;;;23.23;11.13;;;3.40;92.40;;;;;;5013578;28;20610;-92
2023/12/27 02:25:23;;;;;;;15.23;5.33;;;3.40;92.40;;;;;;5013317;28;20230;-92
2023/12/27 02:27:49;;;;;;;9.93;5.30;;;3.40;92.30;;;;;;5013794;28;20171;-91
2023/12/27 02:30:19;;;;;;;25.53;9.40;;;3.40;92.40;;;;;;5013161;28;20190;-92
2023/12/27 02:32:49;;;;;;;19.00;9.53;;;3.30;92.30;;;;;;5013058;28;20208;-92
2023/12/27 02:35:15;;;;;;;19.30;12.13;;;3.30;92.40;;;;;;5013067;28;20195;-91
2023/12/27 02:37:41;;;;;;;9.50;4.67;;;3.30;92.40;;;;;;5013243;28;20175;-92
2023/12/27 02:40:08;;;;;;;14.50;4.63;;;3.30;92.40;;;;;;5012775;28;20194;-91
2023/12/27 02:42:35;;;;;;;8.77;5.03;;;3.30;92.50;;;;;;5013022;28;20203;-91
2023/12/27 02:45:01;;;;;;;15.00;5.90;;;3.30;92.50;;;;;;5012829;28;20177;-91
2023/12/27 02:47:26;;;;;;;14.77;4.90;;;3.20;92.50;;;;;;5012970;28;20175;-92
2023/12/27 02:49:52;;;;;;;16.87;5.67;;;3.20;92.60;;;;;;5012674;28;20174;-92
2023/12/27 02:52:18;;;;;;;8.07;5.33;;;3.30;92.70;;;;;;5014078;28;20185;-92
2023/12/27 02:54:43;;;;;;;13.43;5.47;;;3.30;92.60;;;;;;5012705;28;20276;-91
2023/12/27 02:57:09;;;;;;;17.50;5.30;;;3.20;92.60;;;;;;5012892;28;20177;-92
2023/12/27 02:59:34;;;;;;;16.73;5.23;;;3.20;92.60;;;;;;5012910;28;20747;-92
2023/12/27 03:02:00;;;;;;;15.03;6.23;;;3.20;92.60;;;;;;5012484;28;20202;-92
2023/12/27 03:04:25;;;;;;;24.13;6.87;;;3.20;92.60;;;;;;5012692;28;20175;-92
2023/12/27 03:06:51;;;;;;;12.77;6.07;;;3.10;92.60;;;;;;5013481;28;20177;-92
2023/12/27 03:09:16;;;;;;;20.93;6.30;;;3.20;92.70;;;;;;5012691;28;20231;-92
2023/12/27 03:11:42;;;;;;;16.13;5.60;;;3.10;92.60;;;;;;5012350;28;20270;-92
2023/12/27 03:14:08;;;;;;;19.33;10.10;;;3.10;92.60;;;;;;5012524;28;20605;-91
2023/12/27 03:16:33;;;;;;;17.40;11.23;;;3.00;92.70;;;;;;5012488;28;20181;-91
2023/12/27 03:19:00;;;;;;;22.77;10.00;;;3.10;92.70;;;;;;5012941;28;20178;-91
2023/12/27 03:21:25;;;;;;;21.60;10.83;;;3.00;92.70;;;;;;5012441;28;20553;-92
2023/12/27 03:23:51;;;;;;;16.17;8.87;;;3.00;92.80;;;;;;5013539;28;20200;-92
2023/12/27 03:26:17;;;;;;;19.90;9.37;;;2.90;92.90;;;;;;5012532;28;20268;-91
2023/12/27 03:28:42;;;;;;;23.80;9.80;;;2.90;92.90;;;;;;5012080;28;20184;-92
2023/12/27 03:31:08;;;;;;;;;;;2.90;92.90;;;;;;5012728;28;20226;-92
2023/12/27 03:33:33;;;;;;;13.70;8.40;;;2.90;93.00;;;;;;5011687;28;20285;-92
2023/12/27 03:35:59;;;;;;;20.87;10.80;;;2.90;92.90;;;;;;5012041;28;20203;-91
2023/12/27 03:38:24;;;;;;;12.83;8.43;;;2.90;92.90;;;;;;5012185;28;20169;-92
2023/12/27 03:40:50;;;;;;;23.50;8.60;;;2.90;92.90;;;;;;5012183;28;20208;-91
2023/12/27 03:43:16;;;;;;;20.57;10.07;;;2.90;92.90;;;;;;5012726;28;20173;-91
2023/12/27 03:45:41;;;;;;;15.77;8.73;;;3.00;93.00;;;;;;5011990;28;20185;-91
2023/12/27 03:48:07;;;;;;;19.60;9.50;;;3.00;92.90;;;;;;5011772;28;20170;-92
2023/12/27 03:50:33;;;;;;;11.93;4.67;;;3.00;92.90;;;;;;5012178;28;20206;-92
2023/12/27 03:52:58;;;;;;;22.57;5.87;;;3.10;92.90;;;;;;5011905;28;20558;-92
2023/12/27 03:55:25;;;;;;;18.17;5.57;;;3.10;92.80;;;;;;5012132;28;20181;-92
2023/12/27 03:57:51;;;;;;;18.43;8.60;;;3.10;92.70;;;;;;5011508;28;20177;-92
2023/12/27 04:00:17;;;;;;;19.50;9.87;;;3.10;92.60;;;;;;5011467;28;20198;-92
2023/12/27 04:02:42;;;;;;;17.13;5.73;;;3.00;92.50;;;;;;5011322;28;20184;-92
2023/12/27 04:05:08;;;;;;;16.17;5.27;;;3.00;92.60;;;;;;5011716;28;20183;-91
2023/12/27 04:07:34;;;;;;;20.50;6.80;;;2.80;92.70;;;;;;5011749;28;20174;-91
2023/12/27 04:10:00;;;;;;;14.50;5.90;;;2.80;92.90;;;;;;5012091;28;20218;-92
2023/12/27 04:12:26;;;;;;;16.10;5.97;;;2.80;93.00;;;;;;5013238;28;20197;-92
2023/12/27 04:14:51;;;;;;;23.67;6.17;;;2.80;93.10;;;;;;5012481;28;20515;-92
2023/12/27 04:17:17;;;;;;;22.43;6.07;;;2.80;93.10;;;;;;5011913;28;20533;-91
2023/12/27 04:19:42;;;;;;;15.30;6.67;;;2.80;93.10;;;;;;5011984;28;20208;-91
2023/12/27 04:22:09;;;;;;;18.90;6.90;;;2.80;93.20;;;;;;5011971;28;20288;-92
2023/12/27 04:24:35;;;;;;;18.47;5.57;;;2.80;93.10;;;;;;5011825;28;20174;-92
2023/12/27 04:27:01;;;;;;;13.60;5.80;;;2.80;93.20;;;;;;5011578;28;20613;-92
2023/12/27 04:29:26;;;;;;;21.00;7.00;;;2.80;93.10;;;;;;5011462;28;20292;-92
2023/12/27 04:31:52;;;;;;;14.70;5.67;;;2.80;93.20;;;;;;5012202;28;20192;-91
2023/12/27 04:34:18;;;;;;;12.77;5.47;;;2.80;93.30;;;;;;5012062;28;20178;-92
2023/12/27 04:36:43;;;;;;;14.20;5.70;;;2.90;93.20;;;;;;5011752;28;20181;-93
2023/12/27 04:39:09;;;;;;;18.63;9.90;;;2.90;93.20;;;;;;5011486;28;20209;-92
2023/12/27 04:41:35;;;;;;;27.87;11.47;;;2.80;93.00;;;;;;5011215;28;20617;-92
2023/12/27 04:44:00;;;;;;;28.80;11.60;;;2.80;93.10;;;;;;5012168;28;20179;-92
2023/12/27 04:46:26;;;;;;;;;;;2.80;93.10;;;;;;5011543;28;20174;-92
2023/12/27 04:48:51;;;;;;;19.20;10.70;;;2.80;93.10;;;;;;5011181;28;19959;-93
2023/12/27 04:51:17;;;;;;;14.90;10.90;;;2.80;93.10;;;;;;5012506;28;20233;-92
2023/12/27 04:53:43;;;;;;;14.13;10.17;;;2.80;93.10;;;;;;5011363;28;20376;-92
2023/12/27 04:56:09;;;;;;;19.90;9.60;;;2.80;93.10;;;;;;5011690;28;20184;-92
2023/12/27 04:58:35;;;;;;;22.43;11.40;;;2.80;93.10;;;;;;5011076;28;20215;-92
2023/12/27 05:01:08;;;;;;;20.50;11.67;;;2.80;93.20;;;;;;5010939;28;20250;-92
2023/12/27 05:03:35;;;;;;;14.07;9.77;;;2.80;93.20;;;;;;5010859;28;20166;-92
2023/12/27 05:06:01;;;;;;;;;;;2.80;93.20;;;;;;5011338;28;20170;-92
2023/12/27 05:08:27;;;;;;;;;;;2.80;93.20;;;;;;5011640;28;19906;-91
2023/12/27 05:10:53;;;;;;;;;;;2.80;93.20;;;;;;5010966;28;19917;-92
2023/12/27 05:13:18;;;;;;;;;;;2.80;93.20;;;;;;5011501;28;19905;-92
2023/12/27 05:15:44;;;;;;;21.45;6.70;;;2.90;93.20;;;;;;5011073;28;19912;-91
2023/12/27 05:18:09;;;;;;;16.67;7.10;;;2.90;93.20;;;;;;5010963;28;20223;-92
2023/12/27 05:20:35;;;;;;;17.60;11.07;;;2.90;93.20;;;;;;5010518;28;20254;-91
2023/12/27 05:23:01;;;;;;;19.93;11.07;;;3.00;93.20;;;;;;5010565;28;20738;-92
2023/12/27 05:25:26;;;;;;;19.63;10.67;;;3.00;93.20;;;;;;5010936;28;20182;-92
2023/12/27 05:27:52;;;;;;;16.27;6.27;;;3.00;93.20;;;;;;5010367;28;20186;-92
2023/12/27 05:30:17;;;;;;;19.27;5.93;;;3.00;93.20;;;;;;5010411;28;20197;-92
2023/12/27 05:32:43;;;;;;;21.67;6.60;;;3.00;93.20;;;;;;5010405;28;20220;-93
2023/12/27 05:35:10;;;;;;;13.53;6.40;;;3.00;93.10;;;;;;5010268;28;20171;-91
2023/12/27 05:37:35;;;;;;;19.03;6.50;;;3.00;93.00;;;;;;5011336;28;20175;-92
2023/12/27 05:40:01;;;;;;;15.43;5.87;;;3.00;93.00;;;;;;5009986;28;20621;-92
2023/12/27 05:42:27;;;;;;;20.03;6.90;;;3.00;92.90;;;;;;5010475;28;20261;-92
2023/12/27 05:44:52;;;;;;;21.90;6.80;;;2.90;92.80;;;;;;5010113;28;20181;-92
2023/12/27 05:47:18;;;;;;;16.13;7.80;;;3.00;92.70;;;;;;5009792;28;20264;-91
2023/12/27 05:49:44;;;;;;;21.47;9.10;;;3.00;92.70;;;;;;5010141;28;20200;-91
2023/12/27 05:52:10;;;;;;;15.53;6.97;;;3.00;92.70;;;;;;5010215;28;20181;-92
2023/12/27 05:54:36;;;;;;;19.87;6.40;;;2.90;92.60;;;;;;5011422;28;20182;-92
2023/12/27 05:57:02;;;;;;;21.27;6.60;;;2.90;92.50;;;;;;5009767;28;20188;-91
2023/12/27 05:59:28;;;;;;;19.80;6.10;;;2.90;92.50;;;;;;5010375;28;20205;-92
2023/12/27 06:01:54;;;;;;;16.00;6.57;;;2.90;92.50;;;;;;5009965;28;20730;-92
2023/12/27 06:04:21;;;;;;;18.13;11.87;;;2.80;92.40;;;;;;5011049;28;20177;-92
2023/12/27 06:06:49;;;;;;;26.00;11.73;;;2.80;92.40;;;;;;5010221;28;20178;-91
2023/12/27 06:09:16;;;;;;;18.50;14.23;;;2.80;92.40;;;;;;5009788;28;20208;-92
2023/12/27 06:11:41;;;;;;;27.53;15.60;;;2.80;92.40;;;;;;5009735;28;20242;-91
2023/12/27 06:14:07;;;;;;;22.37;14.73;;;2.80;92.40;;;;;;5009933;28;20174;-91
2023/12/27 06:16:32;;;;;;;19.23;13.93;;;2.70;92.40;;;;;;5009290;28;20190;-92
2023/12/27 06:19:00;;;;;;;16.07;10.47;;;2.70;92.50;;;;;;5009400;28;20225;-91
2023/12/27 06:21:25;;;;;;;20.67;11.20;;;2.70;92.60;;;;;;5009271;28;20206;-92
2023/12/27 06:23:51;;;;;;;15.93;11.03;;;2.60;92.70;;;;;;5009389;28;20187;-91
2023/12/27 06:26:16;;;;;;;19.03;10.80;;;2.50;92.70;;;;;;5009376;28;20174;-91
2023/12/27 06:28:44;;;;;;;13.83;10.83;;;2.50;92.80;;;;;;5009489;28;20232;-92
2023/12/27 06:31:09;;;;;;;18.63;11.00;;;2.50;92.90;;;;;;5009220;28;20205;-91
2023/12/27 06:33:35;;;;;;;12.40;7.03;;;2.30;92.90;;;;;;5009394;28;20552;-91
2023/12/27 06:36:01;;;;;;;18.80;6.90;;;2.20;93.00;;;;;;5009326;28;20192;-92
2023/12/27 06:38:28;;;;;;;17.73;6.23;;;2.20;93.10;;;;;;5009353;28;20571;-92
2023/12/27 06:40:55;;;;;;;19.30;7.43;;;2.20;93.20;;;;;;5009117;28;20231;-92
2023/12/27 06:43:21;;;;;;;19.57;6.83;;;2.30;93.40;;;;;;5009169;28;20253;-92
2023/12/27 06:45:46;;;;;;;19.73;6.33;;;2.30;93.40;;;;;;5009263;28;20213;-91
2023/12/27 06:48:12;;;;;;;16.50;6.50;;;2.20;93.40;;;;;;5009486;28;20192;-93
2023/12/27 06:50:38;;;;;;;22.97;10.53;;;2.10;93.40;;;;;;5009298;28;20262;-91
2023/12/27 06:53:04;;;;;;;19.00;11.47;;;2.10;93.40;;;;;;5009660;28;20259;-92
2023/12/27 06:55:30;;;;;;;15.33;11.40;;;2.10;93.40;;;;;;5009742;28;20189;-91
2023/12/27 06:57:55;;;;;;;15.60;12.40;;;2.10;93.40;;;;;;5009622;28;20235;-91
2023/12/27 07:00:21;;;;;;;19.97;12.63;;;2.10;93.40;;;;;;5012030;28;20205;-90
2023/12/27 07:02:47;;;;;;;20.87;12.33;;;2.10;93.40;;;;;;5011682;28;20253;-92
2023/12/27 07:05:12;;;;;;;30.33;13.13;;;2.10;93.50;;;;;;5011307;28;20218;-92
2023/12/27 07:07:38;;;;;;;24.60;8.77;;;2.30;93.40;;;;;;5012854;28;20241;-91
2023/12/27 07:10:06;;;;;;;12.00;6.77;;;2.30;93.40;;;;;;5016613;28;20224;-93
2023/12/27 07:12:31;;;;;;;13.43;7.97;;;2.30;93.30;;;;;;5015085;28;20183;-92
2023/12/27 07:14:58;;;;;;;18.77;15.80;;;2.30;93.20;;;;;;5014025;28;20184;-92
2023/12/27 07:17:24;;;;;;;16.93;15.37;;;2.30;93.10;;;;;;5014827;28;20627;-92
2023/12/27 07:19:50;;;;;;;14.50;9.10;;;2.20;93.00;;;;;;5013896;28;20773;-92
2023/12/27 07:22:16;;;;;;;15.10;8.97;;;2.10;93.00;;;;;;5012581;28;20286;-92
2023/12/27 07:24:42;;;;;;;23.00;16.90;;;2.10;93.00;;;;;;5012679;28;20183;-92
2023/12/27 07:27:09;;;;;;;25.30;16.00;;;2.20;93.10;;;;;;5012603;28;20685;-91
2023/12/27 07:29:36;;;;;;;14.23;12.70;;;2.10;93.00;;;;;;5012262;28;20204;-92
2023/12/27 07:32:04;;;;;;;11.43;7.40;;;2.10;93.00;;;;;;5012636;28;20589;-91
2023/12/27 07:34:29;;;;;;;11.90;7.20;;;2.10;92.90;;;;;;5012439;28;20181;-91
2023/12/27 07:36:55;;;;;;;17.33;12.60;;;2.00;93.00;;;;;;5012561;28;20224;-91
2023/12/27 07:39:20;;;;;;;19.97;12.70;;;2.00;93.00;;;;;;5012399;28;20205;-92
2023/12/27 07:41:46;;;;;;;24.20;13.27;;;2.00;93.00;;;;;;5012856;28;20201;-92
2023/12/27 07:44:12;;;;;;;17.07;8.37;;;1.90;93.00;;;;;;5013728;28;20276;-92
2023/12/27 07:46:38;;;;;;;17.77;7.13;;;1.90;93.10;;;;;;5013929;28;20170;-91
2023/12/27 07:49:04;;;;;;;14.13;12.70;;;1.90;93.10;;;;;;5013557;28;20173;-92
2023/12/27 07:51:29;;;;;;;18.97;12.87;;;2.00;93.10;;;;;;5013254;28;20220;-92
2023/12/27 07:53:55;;;;;;;19.33;13.37;;;1.90;93.10;;;;;;5013890;28;20182;-92
2023/12/27 07:56:21;;;;;;;13.83;7.50;;;2.00;93.10;;;;;;5013841;28;20182;-92
2023/12/27 07:58:47;;;;;;;10.97;7.30;;;2.00;93.10;;;;;;5013936;28;20190;-93
2023/12/27 08:01:13;;;;;;;15.97;13.63;;;1.90;93.00;;;;;;5014261;28;20205;-92
2023/12/27 08:03:39;;;;;;;24.20;16.20;;;2.00;93.00;;;;;;5014407;28;20176;-92
2023/12/27 08:06:06;;;;;;;22.67;16.87;;;1.90;93.00;;;;;;5013885;28;20170;-92
2023/12/27 08:08:33;;;;;;;14.23;9.23;;;1.90;93.00;;;;;;5013737;28;20192;-92
2023/12/27 08:10:58;;;;;;;14.47;8.97;;;1.90;93.00;;;;;;5013951;28;20217;-92
2023/12/27 08:13:24;;;;;;;19.80;15.30;;;1.90;93.10;;;;;;5017352;28;20205;-92
2023/12/27 08:15:53;;;;;;;;;;;1.90;93.10;;;;;;5015561;28;20183;-92
2023/12/27 08:18:52;;;;;;;16.90;14.80;;;1.90;93.00;;;;;;5022387;28;19944;-92
2023/12/27 08:21:31;;;;;;;;;;;1.90;93.10;;;;;;5028099;28;20108;-91
2023/12/27 08:23:57;;;;;;;;;;;1.90;93.00;;;;;;5027342;28;19970;-92
2023/12/27 08:26:25;;;;;;;;;;;2.00;93.00;;;;;;5026721;28;19909;-92
2023/12/27 08:28:51;;;;;;;;;;;1.90;92.90;;;;;;5029752;28;19905;-92
2023/12/27 08:31:16;;;;;;;;;;;2.00;92.90;;;;;;5030730;28;19964;-92
2023/12/27 08:36:48;;;;;;;;;;;1.90;93.00;;;;;;5064371;28;19944;-91
2023/12/27 08:39:22;;;;;;;;;;;1.90;93.00;;;;;;5052729;28;19916;-91
2023/12/27 08:41:48;;;;;;;;;;;2.00;93.10;;;;;;5025859;28;19932;-91
2023/12/27 08:44:13;;;;;;;;;;;2.10;93.10;;;;;;5027480;28;19905;-91
2023/12/27 08:46:45;;;;;;;;;;;2.10;93.10;;;;;;5024357;28;19906;-91
2023/12/27 08:49:26;;;;;;;;;;;;;;;;;;;;;
2023/12/27 08:51:58;;;;;;;;;;;2.20;93.10;;;;;;5034044;28;19937;-92
2023/12/27 08:55:05;;;;;;;;;;;;;;;;;;;;;
2023/12/27 08:57:59;;;;;;;;;;;2.20;93.00;;;;;;5029194;28;19945;-92
2023/12/27 09:05:37;;;;;;;;;;;2.20;92.90;;;;;;5071862;28;19921;-91
2023/12/27 09:08:34;;;;;;;;;;;2.30;93.00;;;;;;5050657;28;19904;-91
2023/12/27 09:11:00;;;;;;;27.23;21.80;;;2.30;93.00;;;;;;5048190;28;20211;-91
2023/12/27 09:13:26;;;;;;;22.17;20.17;;;2.30;92.90;;;;;;5051329;28;20195;-91
2023/12/27 09:16:03;;;;;;;23.63;20.50;;;2.30;93.00;;;;;;5048604;28;20647;-90
2023/12/27 09:18:32;;;;;;;20.77;18.37;;;2.20;93.00;;;;;;5051981;28;20278;-91
2023/12/27 09:33:59;;;;;;;21.73;15.07;;;2.30;93.40;;;;;;5084422;28;20588;-90
2023/12/27 09:43:54;;;;;;;18.97;14.03;;;2.40;93.50;;;;;;4956999;28;20191;-91
2023/12/27 09:46:46;;;;;;;20.33;14.67;;;2.40;93.50;;;;;;4989423;28;20180;-91
2023/12/27 09:52:09;;;;;;;21.60;10.37;;;2.50;93.50;;;;;;5051844;22;20233;-91
2023/12/27 09:58:33;;;;;;;23.63;15.37;;;2.60;93.50;;;;;;4998517;28;20286;-91
2023/12/27 10:01:12;;;;;;;21.30;16.07;;;2.70;93.40;;;;;;4983524;28;20221;-90
2023/12/27 10:03:59;;;;;;;17.63;11.40;;;2.70;93.40;;;;;;4985363;28;20189;-90
2023/12/27 10:07:10;;;;;;;21.03;11.03;;;2.70;93.30;;;;;;4978647;28;20155;-91
2023/12/27 10:10:08;;;;;;;22.03;15.43;;;2.80;93.40;;;;;;5059281;22;20236;-91
2023/12/27 10:13:02;;;;;;;;;;;;;;;;;;;;;
2023/12/27 10:18:47;;;;;;;17.93;11.17;;;2.80;93.30;;;;;;5510458;22;20239;-91
2023/12/27 10:21:13;;;;;;;19.60;14.50;;;2.80;93.20;;;;;;5044220;28;20210;-93
2023/12/27 10:24:10;;;;;;;18.50;15.30;;;2.90;93.20;;;;;;5053534;28;20210;-90
2023/12/27 10:26:39;;;;;;;17.97;11.20;;;2.90;93.20;;;;;;5042643;28;20192;-89
2023/12/27 10:29:07;;;;;;;16.70;11.23;;;3.00;93.20;;;;;;5040239;28;20176;-90
2023/12/27 10:31:33;;;;;;;26.10;11.37;;;2.90;93.10;;;;;;5044391;28;20191;-90
2023/12/27 10:34:02;;;;;;;21.00;10.77;;;2.90;93.10;;;;;;5048376;28;20194;-92
2023/12/27 10:36:30;;;;;;;16.67;9.73;;;3.00;93.20;;;;;;5047987;28;20180;-91
2023/12/27 10:38:56;;;;;;;16.80;10.30;;;3.00;93.20;;;;;;5061867;28;20272;-89
2023/12/27 10:41:23;;;;;;;20.10;10.50;;;3.10;93.30;;;;;;5040973;28;20587;-91
2023/12/27 10:43:50;;;;;;;15.57;10.37;;;3.10;93.20;;;;;;5044951;28;20239;-90
2023/12/27 10:46:16;;;;;;;;;;;3.10;93.20;;;;;;5043256;28;20088;-90
2023/12/27 10:48:43;;;;;;;;;;;3.10;93.20;;;;;;5043335;28;19905;-92
2023/12/27 10:51:09;;;;;;;;;;;3.10;93.20;;;;;;5040322;28;19905;-91
2023/12/27 10:53:35;;;;;;;;;;;3.20;93.20;;;;;;5038357;28;19927;-93
2023/12/27 10:56:03;;;;;;;16.37;11.13;;;3.20;93.20;;;;;;5045448;28;19905;-88
2023/12/27 10:58:33;;;;;;;14.60;11.03;;;3.20;93.20;;;;;;5043909;28;20176;-91
2023/12/27 11:01:00;;;;;;;18.47;11.07;;;3.30;93.10;;;;;;5042494;28;20219;-90
2023/12/27 11:03:28;;;;;;;29.37;17.67;;;3.40;93.20;;;;;;5048760;28;20173;-92
2023/12/27 11:05:56;;;;;;;21.10;17.70;;;3.40;93.10;;;;;;5037226;28;20176;-90
2023/12/27 11:08:24;;;;;;;22.13;17.73;;;3.50;93.00;;;;;;5035633;28;20172;-91
2023/12/27 11:10:50;;;;;;;19.73;17.43;;;3.60;93.00;;;;;;5035747;28;20249;-90
2023/12/27 11:13:19;;;;;;;21.20;17.50;;;3.60;92.80;;;;;;5036022;28;20571;-90
2023/12/27 11:15:46;;;;;;;20.20;17.93;;;3.60;92.70;;;;;;5037472;28;20176;-91
2023/12/27 11:18:12;;;;;;;26.53;18.93;;;3.60;92.60;;;;;;5035799;28;20196;-89
2023/12/27 11:20:39;;;;;;;20.40;18.47;;;3.50;92.50;;;;;;5035907;28;20579;-89
2023/12/27 11:23:05;;;;;;;21.27;17.80;;;3.50;92.40;;;;;;5035720;28;20169;-90
2023/12/27 11:25:31;;;;;;;28.13;19.70;;;3.60;92.50;;;;;;5036583;28;20210;-89
2023/12/27 11:27:58;;;;;;;24.27;18.73;;;3.60;92.40;;;;;;5037254;28;20206;-88
2023/12/27 11:30:26;;;;;;;24.00;18.17;;;3.80;92.60;;;;;;5036047;28;20245;-89
2023/12/27 11:32:53;;;;;;;22.07;17.93;;;3.80;92.50;;;;;;5036317;28;20221;-90
2023/12/27 11:35:29;;;;;;;30.03;20.50;;;3.70;92.10;;;;;;5036171;28;20385;-89
2023/12/27 11:38:25;;;;;;;31.77;21.93;;;3.60;92.20;;;;;;5035619;28;20180;-90
2023/12/27 11:40:52;;;;;;;28.47;21.43;;;3.70;92.30;;;;;;5023310;28;20223;-90
2023/12/27 11:43:23;;;;;;;27.00;17.57;;;3.80;92.30;;;;;;5035334;28;20217;-88
2023/12/27 11:45:59;;;;;;;24.70;16.33;;;3.80;92.20;;;;;;5035543;28;20171;-89
2023/12/27 11:48:27;;;;;;;19.70;14.40;;;3.80;92.10;;;;;;5035373;28;20175;-90
2023/12/27 11:50:55;;;;;;;11.97;10.77;;;3.80;92.10;;;;;;5037022;28;20199;-89
2023/12/27 11:53:24;;;;;;;;;;;3.80;92.10;;;;;;5037063;28;20080;-90
2023/12/27 11:55:51;;;;;;;18.60;14.50;;;3.80;92.10;;;;;;5035158;28;19905;-89
2023/12/27 11:58:30;;;;;;;18.27;15.63;;;3.90;92.10;;;;;;5035520;28;20222;-89
2023/12/27 12:00:56;;;;;;;23.73;17.03;;;4.00;92.10;;;;;;5035037;28;20698;-90
2023/12/27 12:03:35;;;;;;;16.80;11.77;;;4.00;92.10;;;;;;5035064;28;20263;-90
2023/12/27 12:06:34;;;;;;;19.00;10.87;;;3.90;91.90;;;;;;5035458;28;20548;-91
2023/12/27 12:09:00;;;;;;;22.80;17.13;;;4.00;91.90;;;;;;5035507;28;20640;-89
2023/12/27 12:11:27;;;;;;;24.60;16.50;;;4.00;91.70;;;;;;5036237;28;20274;-90
2023/12/27 12:13:54;;;;;;;20.50;11.00;;;4.10;91.80;;;;;;5035643;28;20113;-89
2023/12/27 12:16:20;;;;;;;16.13;11.20;;;4.10;91.70;;;;;;5035634;28;20200;-90
2023/12/27 12:18:46;;;;;;;23.80;13.53;;;4.20;91.60;;;;;;5034870;28;20197;-89
2023/12/27 12:21:12;;;;;;;15.93;10.90;;;4.30;91.50;;;;;;5034896;28;20200;-89
2023/12/27 12:23:38;;;;;;;17.30;11.03;;;4.30;91.40;;;;;;5034891;28;20180;-89
2023/12/27 12:26:05;;;;;;;16.80;12.23;;;4.30;91.40;;;;;;5034792;28;20169;-90
2023/12/27 12:28:30;;;;;;;16.43;11.80;;;4.30;91.30;;;;;;5034449;28;20177;-89
2023/12/27 12:30:59;;;;;;;14.10;11.70;;;4.40;91.30;;;;;;5033887;28;20688;-89
2023/12/27 12:33:25;;;;;;;14.93;11.97;;;4.50;91.20;;;;;;5034485;28;20177;-90
2023/12/27 12:35:53;;;;;;;21.63;19.40;;;4.60;91.00;;;;;;5037102;28;20231;-90
2023/12/27 12:38:20;;;;;;;23.50;20.23;;;4.70;90.70;;;;;;5034407;28;20200;-90
2023/12/27 12:40:47;;;;;;;21.50;19.20;;;4.70;90.50;;;;;;5033897;28;20286;-91
2023/12/27 12:43:16;;;;;;;18.53;11.33;;;4.80;90.30;;;;;;5034042;28;20210;-91
2023/12/27 12:45:44;;;;;;;16.70;12.03;;;4.80;90.10;;;;;;5034258;28;20641;-90
2023/12/27 12:48:11;;;;;;;23.30;17.93;;;4.80;89.90;;;;;;5033656;28;20656;-90
2023/12/27 12:50:37;;;;;;;23.50;18.60;;;4.80;89.80;;;;;;5033780;28;20548;-90
2023/12/27 12:53:21;;;;;;;21.50;19.27;;;4.70;89.70;;;;;;5033788;28;20184;-91
2023/12/27 12:55:47;;;;;;;19.93;17.80;;;4.80;89.70;;;;;;5034956;28;20176;-90
2023/12/27 12:58:13;;;;;;;20.63;17.87;;;4.80;89.80;;;;;;5033824;28;20227;-91
2023/12/27 13:00:39;;;;;;;20.07;18.13;;;4.80;89.50;;;;;;5033555;28;20191;-91
2023/12/27 13:03:07;;;;;;;21.07;17.90;;;4.90;89.50;;;;;;5034914;28;20168;-91
2023/12/27 13:05:32;;;;;;;17.83;15.93;;;4.90;89.50;;;;;;5032668;28;20173;-91
2023/12/27 13:08:04;;;;;;;15.90;12.77;;;4.90;89.40;;;;;;5033210;28;20184;-91
2023/12/27 13:10:30;;;;;;;18.00;10.50;;;4.90;89.40;;;;;;5033390;28;20222;-91
2023/12/27 13:12:57;;;;;;;27.53;11.00;;;4.80;89.30;;;;;;5033237;28;20308;-90
2023/12/27 13:15:22;;;;;;;24.33;17.23;;;4.80;89.40;;;;;;5033257;28;20550;-91
2023/12/27 13:17:48;;;;;;;18.10;16.23;;;4.90;89.40;;;;;;5033141;28;20203;-91
2023/12/27 13:20:15;;;;;;;21.27;17.17;;;4.90;89.30;;;;;;5033250;28;20234;-91
2023/12/27 13:22:40;;;;;;;17.93;10.23;;;4.90;89.00;;;;;;5033098;28;20204;-90
2023/12/27 13:25:09;;;;;;;16.70;11.20;;;4.90;88.90;;;;;;5033928;28;20237;-90
2023/12/27 13:27:35;;;;;;;21.40;16.03;;;4.90;88.80;;;;;;5032990;28;20531;-89
2023/12/27 13:30:01;;;;;;;17.50;16.10;;;4.90;88.70;;;;;;5032962;28;20196;-93
2023/12/27 13:32:27;;;;;;;17.80;15.93;;;4.90;88.50;;;;;;5032786;28;20241;-90
2023/12/27 13:34:52;;;;;;;20.97;11.07;;;4.90;88.40;;;;;;5032920;28;20596;-91
2023/12/27 13:37:18;;;;;;;13.73;9.83;;;4.90;88.30;;;;;;5032928;28;20261;-90
2023/12/27 13:39:44;;;;;;;18.13;16.50;;;4.90;88.30;;;;;;5049226;28;20196;-90